Munhall, PA

8:54 PM EST on February 11, 2016 (GMT -0500)
Carrick | | Change Station
CLOSE
Current Station
Personal Weather Station
Location: Pittsburgh, PA
Elevation: 1217 ft
Nearby Weather Stations

Elev 1217 ft 40.40 °N, 79.99 °W | Updated 5 seconds ago

Clear
Clear
14.2 °F
Feels Like 14 °F
N
2.5
Wind Variable Wind from SSW
Gusts 2.5 mph

Today
High -- | Low -- °F
--% Chance of Precip.
Yesterday
High -- | Low -- °F
Precip. -- in
Pressure 30.31 in
Visibility 10.0 miles
Clouds Clear
Windchill 14 °F
Dew Point -8 °F
Humidity 36%
Rainfall 0.00 in
Snow Depth Not available.
7:18 AM 5:49 PM
Waxing Crescent, 16% visible
METAR KAGC 120053Z 28009KT 10SM CLR M09/M19 A3022 RMK AO2 SLP264 T10941189
Pressure 30.31 in
Visibility 10.0 miles
Clouds Clear
Windchill 14 °F
Dew Point -8 °F
Humidity 36%
Rainfall 0.00 in
Snow Depth Not available.
7:18 AM 5:49 PM
Waxing Crescent, 16% visible
METAR KAGC 120053Z 28009KT 10SM CLR M09/M19 A3022 RMK AO2 SLP264 T10941189

10-Day Weather Forecast

Almanac

Astronomy

Feb. 11, 2016 Rise Set
Actual Time
Civil Twilight
Nautical Twilight
Astronomical Twilight
Moon
Length of Visible Light
Length of Day
Tomorrow will be .
, % of the Moon is Illuminated

Today's Extremes

State Highs State Lows

Community

WunderPhotos

Upload Photos

1,892,207 photos uploaded!

WunderBlog® & News

Nearby

Air Quality

  Air Quality AQ Index Pollutant
Not available.

Snow Depth

Station Depth Elevation

Earthquake Activity

City Distance Mag. Time & Date
Minimum magnitude displayed is 2.5.

Coastal Water Temperatures

Place Temperature

Stations

Nearby Weather Stations

Station Location Temp. Windchill Dew Point Humidity Wind Precip. Elev Updated Type
                   

Watches & Warnings

There are currently no watches in effect.